createdAt,value
2022-10-07T00:00:56.711Z,69.10
2022-10-07T00:03:25.966Z,69.10
2022-10-07T00:06:16.824Z,69.20
2022-10-07T00:08:49.625Z,69.10
2022-10-07T00:11:23.017Z,69.30
2022-10-07T00:13:54.032Z,69.30
2022-10-07T00:16:30.284Z,69.50
2022-10-07T00:18:59.605Z,69.60
2022-10-07T00:21:28.702Z,69.60
2022-10-07T00:23:55.744Z,69.70
2022-10-07T00:26:24.753Z,69.70
2022-10-07T00:28:51.826Z,69.80
2022-10-07T00:31:24.460Z,69.70
2022-10-07T00:33:51.919Z,69.90
2022-10-07T00:36:24.747Z,69.90
2022-10-07T00:38:57.184Z,70.00
2022-10-07T00:41:30.008Z,70.10
2022-10-07T00:43:57.381Z,70.10
2022-10-07T00:46:36.963Z,70.20
2022-10-07T00:49:11.756Z,70.40
2022-10-07T00:51:40.821Z,70.20
2022-10-07T00:54:12.281Z,70.30
2022-10-07T00:56:39.812Z,70.40
2022-10-07T00:59:06.689Z,70.50
2022-10-07T01:01:34.013Z,70.50
2022-10-07T01:04:03.704Z,70.50
2022-10-07T01:06:30.503Z,70.60
2022-10-07T01:08:57.682Z,70.70
2022-10-07T01:11:45.976Z,70.70
2022-10-07T01:14:19.659Z,70.80
2022-10-07T01:16:54.098Z,70.80
2022-10-07T01:19:39.655Z,70.90
2022-10-07T01:22:28.183Z,70.90
2022-10-07T01:25:05.984Z,70.90
2022-10-07T01:27:35.070Z,71.00
2022-10-07T01:30:07.558Z,71.00
2022-10-07T01:32:42.586Z,71.10
2022-10-07T01:35:18.432Z,71.20
2022-10-07T01:37:50.697Z,71.10
2022-10-07T01:40:22.192Z,71.20
2022-10-07T01:42:49.822Z,71.30
2022-10-07T01:45:22.557Z,71.20
2022-10-07T01:47:50.429Z,71.40
2022-10-07T01:50:20.689Z,71.20
2022-10-07T01:53:12.994Z,71.40
2022-10-07T01:56:12.679Z,71.40
2022-10-07T01:59:14.629Z,71.40
2022-10-07T02:01:47.374Z,71.30
2022-10-07T02:04:31.137Z,71.50
2022-10-07T02:07:06.147Z,71.50
2022-10-07T02:09:57.641Z,71.60
2022-10-07T02:12:35.751Z,71.60
2022-10-07T02:15:28.226Z,71.70
2022-10-07T02:18:00.098Z,71.60
2022-10-07T02:20:32.055Z,71.80
2022-10-07T02:23:02.553Z,71.90
2022-10-07T02:25:35.260Z,71.90
2022-10-07T02:28:05.531Z,72.00
2022-10-07T02:30:34.843Z,71.90
2022-10-07T02:33:07.731Z,72.00
2022-10-07T02:35:41.270Z,72.10
2022-10-07T02:38:11.744Z,72.10
2022-10-07T02:41:31.857Z,72.20
2022-10-07T02:44:16.802Z,71.90
2022-10-07T02:46:56.557Z,72.00
2022-10-07T02:49:24.362Z,72.30
2022-10-07T02:52:13.659Z,72.40
2022-10-07T02:55:03.714Z,72.40
2022-10-07T02:57:52.942Z,72.40
2022-10-07T03:00:20.360Z,72.30
2022-10-07T03:02:55.255Z,72.40
2022-10-07T03:05:24.321Z,72.50
2022-10-07T03:07:57.834Z,72.50
2022-10-07T03:10:26.817Z,72.70
2022-10-07T03:12:54.002Z,72.70
2022-10-07T03:15:22.096Z,72.70
2022-10-07T03:17:49.044Z,72.80
2022-10-07T03:20:15.743Z,72.90
2022-10-07T03:22:43.684Z,72.90
2022-10-07T03:25:12.314Z,73.10
2022-10-07T03:27:43.042Z,73.10
2022-10-07T03:30:11.255Z,73.20
2022-10-07T03:32:44.284Z,73.30
2022-10-07T03:35:11.058Z,73.30
2022-10-07T03:37:37.909Z,73.40
2022-10-07T03:40:05.272Z,73.40
2022-10-07T03:42:31.967Z,73.50
2022-10-07T03:44:59.476Z,73.60
2022-10-07T03:47:27.424Z,73.60
2022-10-07T03:49:54.859Z,73.60
2022-10-07T03:52:21.559Z,73.60
2022-10-07T03:54:48.326Z,73.60
2022-10-07T03:57:33.879Z,73.70
2022-10-07T04:00:00.646Z,73.70
2022-10-07T04:02:28.363Z,73.80
2022-10-07T04:04:57.597Z,74.90
2022-10-07T04:07:24.509Z,73.90
2022-10-07T04:09:51.286Z,74.90
2022-10-07T04:12:17.988Z,75.00
2022-10-07T04:14:45.011Z,75.10
2022-10-07T04:17:11.697Z,75.10
2022-10-07T04:19:38.379Z,75.20
2022-10-07T04:22:08.918Z,74.20
2022-10-07T04:24:39.014Z,75.30
2022-10-07T04:27:05.890Z,75.40
2022-10-07T04:29:36.739Z,75.30
2022-10-07T04:32:05.991Z,75.30
2022-10-07T04:34:32.754Z,75.40
2022-10-07T04:37:01.381Z,75.50
2022-10-07T04:39:43.040Z,75.50
2022-10-07T04:42:33.974Z,76.40
2022-10-07T04:45:00.649Z,75.60
2022-10-07T04:47:27.422Z,75.60
2022-10-07T04:49:55.176Z,75.70
2022-10-07T04:52:21.992Z,75.70
2022-10-07T04:54:48.680Z,75.80
2022-10-07T04:57:15.473Z,75.80
2022-10-07T04:59:43.150Z,74.80
2022-10-07T05:02:10.259Z,74.80
2022-10-07T05:04:37.195Z,74.80
2022-10-07T05:07:04.674Z,74.80
2022-10-07T05:09:34.637Z,74.80
2022-10-07T05:12:01.452Z,74.80
2022-10-07T05:14:28.223Z,74.80
2022-10-07T05:16:54.920Z,75.00
2022-10-07T05:19:21.710Z,74.90
2022-10-07T05:21:48.380Z,75.00
2022-10-07T05:24:15.072Z,75.30
2022-10-07T05:26:42.034Z,75.10
2022-10-07T05:29:09.576Z,75.10
2022-10-07T05:31:36.322Z,75.10
2022-10-07T05:34:06.192Z,75.10
2022-10-07T05:36:36.004Z,75.30
2022-10-07T05:39:02.788Z,75.10
2022-10-07T05:41:29.505Z,75.10
2022-10-07T05:43:56.288Z,75.20
2022-10-07T05:46:23.983Z,75.20
2022-10-07T05:48:52.298Z,75.10
2022-10-07T05:51:20.429Z,75.30
2022-10-07T05:53:49.918Z,75.20
2022-10-07T05:56:20.126Z,75.10
2022-10-07T05:58:47.496Z,75.20
2022-10-07T06:01:16.920Z,75.20
2022-10-07T06:03:48.269Z,75.30
2022-10-07T06:06:15.215Z,75.30
2022-10-07T06:08:41.985Z,75.30
2022-10-07T06:11:31.364Z,75.30
2022-10-07T06:14:01.767Z,75.30
2022-10-07T06:16:29.270Z,75.30
2022-10-07T06:18:56.891Z,75.40
2022-10-07T06:21:28.743Z,75.30
2022-10-07T06:23:57.962Z,75.30
2022-10-07T06:26:24.892Z,75.30
2022-10-07T06:28:51.623Z,75.30
2022-10-07T06:31:25.470Z,75.30
2022-10-07T06:33:52.984Z,75.20
2022-10-07T06:36:19.770Z,75.20
2022-10-07T06:38:52.487Z,75.30
2022-10-07T06:41:21.269Z,75.40
2022-10-07T06:43:48.387Z,75.40
2022-10-07T06:46:18.682Z,75.40
2022-10-07T06:48:46.717Z,75.40
2022-10-07T06:51:15.884Z,75.20
2022-10-07T06:53:43.803Z,75.10
2022-10-07T06:56:13.952Z,75.00
2022-10-07T06:58:40.700Z,75.10
2022-10-07T07:01:07.511Z,75.00
2022-10-07T07:03:34.327Z,75.00
2022-10-07T07:06:02.150Z,74.90
2022-10-07T07:08:31.715Z,75.00
2022-10-07T07:11:28.401Z,75.00
2022-10-07T07:13:55.836Z,75.00
2022-10-07T07:16:24.322Z,74.90
2022-10-07T07:19:05.349Z,75.00
2022-10-07T07:21:34.613Z,74.90
2022-10-07T07:24:03.217Z,74.90
2022-10-07T07:26:30.381Z,74.80
2022-10-07T07:29:02.391Z,74.80
2022-10-07T07:31:30.900Z,74.80
2022-10-07T07:34:01.930Z,74.80
2022-10-07T07:36:30.963Z,74.80
2022-10-07T07:39:04.996Z,74.70
2022-10-07T07:41:35.004Z,74.80
2022-10-07T07:44:04.524Z,74.70
2022-10-07T07:46:38.766Z,74.70
2022-10-07T07:49:06.115Z,74.70
2022-10-07T07:51:36.698Z,74.70
2022-10-07T07:54:09.375Z,74.80
2022-10-07T07:56:36.515Z,75.60
2022-10-07T07:59:06.677Z,74.30
2022-10-07T08:01:35.282Z,73.80
2022-10-07T08:04:05.242Z,72.70
2022-10-07T08:06:32.602Z,71.10
2022-10-07T08:08:59.663Z,69.60
2022-10-07T08:11:28.293Z,68.10
2022-10-07T08:13:56.256Z,66.60
2022-10-07T08:16:25.056Z,65.90
2022-10-07T08:18:55.084Z,64.10
2022-10-07T08:21:27.500Z,63.50
2022-10-07T08:23:57.381Z,63.20
2022-10-07T08:26:25.448Z,63.40
2022-10-07T08:28:52.303Z,63.80
2022-10-07T08:31:19.939Z,63.80
2022-10-07T08:33:48.810Z,64.30
2022-10-07T08:36:18.335Z,65.10
2022-10-07T08:38:49.392Z,65.70
2022-10-07T08:41:38.573Z,66.10
2022-10-07T08:44:18.050Z,66.40
2022-10-07T08:47:00.478Z,67.30
2022-10-07T08:50:04.312Z,67.60
2022-10-07T08:52:37.449Z,67.90
2022-10-07T08:55:15.775Z,68.40
2022-10-07T08:58:04.159Z,68.60
2022-10-07T09:00:50.558Z,68.70
2022-10-07T09:03:40.630Z,68.80
2022-10-07T09:06:34.494Z,69.10
2022-10-07T09:09:39.951Z,69.00
2022-10-07T09:12:12.736Z,69.10
2022-10-07T09:14:43.834Z,69.20
2022-10-07T09:17:20.870Z,69.20
2022-10-07T09:19:50.171Z,69.20
2022-10-07T09:22:21.570Z,69.40
2022-10-07T09:24:52.753Z,69.30
2022-10-07T09:27:23.098Z,69.40
2022-10-07T09:29:51.470Z,69.30
2022-10-07T09:32:18.966Z,69.20
2022-10-07T09:34:46.843Z,69.00
2022-10-07T09:37:16.454Z,68.90
2022-10-07T09:39:44.827Z,68.60
2022-10-07T09:42:36.635Z,68.70
2022-10-07T09:45:18.975Z,68.90
2022-10-07T09:47:55.672Z,68.80
2022-10-07T09:50:37.638Z,68.40
2022-10-07T09:53:29.920Z,68.20
2022-10-07T09:55:56.670Z,68.00
2022-10-07T09:58:29.020Z,67.70
2022-10-07T10:01:01.013Z,67.60
2022-10-07T10:03:36.530Z,67.40
2022-10-07T10:06:07.252Z,66.90
2022-10-07T10:08:39.022Z,66.30
2022-10-07T10:11:21.378Z,66.60
2022-10-07T10:13:51.658Z,66.60
2022-10-07T10:16:36.279Z,66.10
2022-10-07T10:19:26.381Z,65.40
2022-10-07T10:21:56.201Z,65.30
2022-10-07T10:24:46.909Z,65.30
2022-10-07T10:27:22.906Z,65.00
2022-10-07T10:29:55.242Z,64.70
2022-10-07T10:32:43.970Z,64.30
2022-10-07T10:35:29.654Z,64.00
2022-10-07T10:38:21.484Z,63.70
2022-10-07T10:41:10.492Z,63.40
2022-10-07T10:43:51.525Z,63.10
2022-10-07T10:46:36.163Z,63.40
2022-10-07T10:49:10.788Z,62.60
2022-10-07T10:51:44.419Z,62.30
2022-10-07T10:54:39.382Z,62.10
2022-10-07T10:57:24.680Z,60.80
2022-10-07T11:00:05.164Z,61.60
2022-10-07T11:02:38.074Z,61.60
2022-10-07T11:05:06.387Z,61.70
2022-10-07T11:08:01.642Z,60.90
2022-10-07T11:10:47.336Z,60.60
2022-10-07T11:13:15.659Z,60.90
2022-10-07T11:15:57.065Z,59.80
2022-10-07T11:18:38.301Z,59.60
2022-10-07T11:21:12.608Z,59.80
2022-10-07T11:24:02.014Z,59.50
2022-10-07T11:26:34.579Z,59.00
2022-10-07T11:29:11.723Z,59.10
2022-10-07T11:31:44.578Z,59.10
2022-10-07T11:34:34.906Z,58.80
2022-10-07T11:37:21.678Z,59.00
2022-10-07T11:39:49.545Z,59.20
2022-10-07T11:42:21.615Z,58.80
2022-10-07T11:45:08.025Z,58.10
2022-10-07T11:48:01.504Z,58.40
2022-10-07T11:50:37.307Z,58.60
2022-10-07T11:53:16.394Z,58.30
2022-10-07T11:55:55.401Z,57.90
2022-10-07T11:58:26.765Z,58.10
2022-10-07T12:01:25.639Z,57.80
2022-10-07T12:04:13.984Z,58.00
2022-10-07T12:07:01.242Z,57.50
2022-10-07T12:09:55.998Z,57.10
2022-10-07T12:12:23.686Z,57.10
2022-10-07T12:15:04.252Z,56.40
2022-10-07T12:17:31.612Z,56.30
2022-10-07T12:20:33.632Z,56.40
2022-10-07T12:23:28.537Z,56.80
2022-10-07T12:25:58.432Z,57.30
2022-10-07T12:28:38.019Z,57.00
2022-10-07T12:31:15.244Z,56.80
2022-10-07T12:34:10.011Z,56.30
2022-10-07T12:36:42.047Z,55.50
2022-10-07T12:39:09.706Z,56.30
2022-10-07T12:41:40.003Z,56.20
2022-10-07T12:44:51.312Z,55.90
2022-10-07T12:47:25.598Z,56.00
2022-10-07T12:50:02.622Z,55.60
2022-10-07T12:52:32.601Z,56.10
2022-10-07T12:55:14.690Z,56.00
2022-10-07T12:57:42.934Z,56.00
2022-10-07T13:00:18.239Z,55.90
2022-10-07T13:03:19.659Z,55.70
2022-10-07T13:06:10.951Z,56.10
2022-10-07T13:09:09.439Z,56.00
2022-10-07T13:11:57.326Z,55.90
2022-10-07T13:15:01.632Z,55.60
2022-10-07T13:18:07.380Z,55.90
2022-10-07T13:20:42.864Z,55.50
2022-10-07T13:23:26.066Z,55.20
2022-10-07T13:25:57.108Z,55.10
2022-10-07T13:28:27.102Z,55.00
2022-10-07T13:30:56.086Z,54.90
2022-10-07T13:33:32.487Z,55.00
2022-10-07T13:36:23.959Z,55.30
2022-10-07T13:39:10.677Z,55.40
2022-10-07T13:41:40.035Z,55.00
2022-10-07T13:44:06.861Z,54.50
2022-10-07T13:46:38.253Z,55.10
2022-10-07T13:49:06.396Z,55.00
2022-10-07T13:51:42.983Z,54.40
2022-10-07T13:54:22.717Z,54.50
2022-10-07T13:56:50.087Z,54.30
2022-10-07T13:59:21.004Z,54.40
2022-10-07T14:02:01.348Z,54.30
2022-10-07T14:04:37.056Z,54.40
2022-10-07T14:07:12.786Z,54.70
2022-10-07T14:10:00.958Z,54.70
2022-10-07T14:12:37.882Z,54.80
2022-10-07T14:15:13.066Z,54.90
2022-10-07T14:17:47.632Z,54.60
2022-10-07T14:20:38.375Z,54.90
2022-10-07T14:23:20.757Z,54.90
2022-10-07T14:25:47.466Z,54.80
2022-10-07T14:28:23.486Z,54.80
2022-10-07T14:31:27.417Z,54.70
2022-10-07T14:34:15.607Z,54.70
2022-10-07T14:37:01.659Z,54.20
2022-10-07T14:39:42.904Z,54.20
2022-10-07T14:42:32.123Z,54.20
2022-10-07T14:45:01.683Z,53.90
2022-10-07T14:47:31.024Z,54.40
2022-10-07T14:50:02.217Z,54.50
2022-10-07T14:52:51.774Z,54.40
2022-10-07T14:55:29.523Z,54.30
2022-10-07T14:57:59.111Z,54.70
2022-10-07T15:00:29.367Z,54.50
2022-10-07T15:02:58.289Z,54.50
2022-10-07T15:05:26.521Z,54.50
2022-10-07T15:07:53.374Z,54.50
2022-10-07T15:10:23.211Z,54.70
2022-10-07T15:12:50.267Z,54.60
2022-10-07T15:15:17.321Z,54.50
2022-10-07T15:17:44.425Z,54.50
2022-10-07T15:20:14.293Z,54.60
2022-10-07T15:22:41.562Z,54.50
2022-10-07T15:25:10.290Z,54.60
2022-10-07T15:27:37.965Z,54.60
2022-10-07T15:30:07.181Z,54.80
2022-10-07T15:32:34.076Z,55.60
2022-10-07T15:35:00.815Z,55.10
2022-10-07T15:37:27.975Z,55.10
2022-10-07T15:39:57.417Z,55.00
2022-10-07T15:42:24.834Z,55.20
2022-10-07T15:44:52.393Z,55.30
2022-10-07T15:47:25.577Z,55.30
2022-10-07T15:49:52.322Z,55.40
2022-10-07T15:52:19.077Z,55.40
2022-10-07T15:54:46.581Z,55.50
2022-10-07T15:57:14.338Z,55.60
2022-10-07T15:59:44.772Z,55.80
2022-10-07T16:02:15.840Z,55.80
2022-10-07T16:04:47.314Z,55.90
2022-10-07T16:07:15.159Z,56.10
2022-10-07T16:09:44.386Z,56.30
2022-10-07T16:12:11.121Z,56.40
2022-10-07T16:14:38.932Z,56.40
2022-10-07T16:17:05.692Z,56.50
2022-10-07T16:19:32.430Z,56.80
2022-10-07T16:21:59.172Z,56.80
2022-10-07T16:24:25.958Z,56.90
2022-10-07T16:26:53.179Z,57.10
2022-10-07T16:29:40.763Z,57.10
2022-10-07T16:32:10.569Z,57.20
2022-10-07T16:34:39.203Z,57.30
2022-10-07T16:37:06.273Z,57.50
2022-10-07T16:39:33.082Z,57.50
2022-10-07T16:41:59.976Z,57.50
2022-10-07T16:44:27.778Z,57.70
2022-10-07T16:46:57.444Z,57.80
2022-10-07T16:49:26.061Z,57.80
2022-10-07T16:51:53.140Z,58.00
2022-10-07T16:54:21.571Z,58.10
2022-10-07T16:56:50.186Z,58.30
2022-10-07T16:59:24.067Z,58.30
2022-10-07T17:01:54.908Z,58.50
2022-10-07T17:04:22.022Z,58.70
2022-10-07T17:06:49.347Z,58.70
2022-10-07T17:09:17.478Z,58.80
2022-10-07T17:11:44.570Z,58.90
2022-10-07T17:14:15.540Z,59.00
2022-10-07T17:16:50.848Z,59.10
2022-10-07T17:19:23.183Z,59.10
2022-10-07T17:21:51.300Z,59.20
2022-10-07T17:24:19.361Z,59.20
2022-10-07T17:26:46.862Z,59.30
2022-10-07T17:29:18.130Z,59.40
2022-10-07T17:31:48.267Z,59.40
2022-10-07T17:34:16.242Z,59.40
2022-10-07T17:36:43.911Z,59.50
2022-10-07T17:39:11.269Z,59.50
2022-10-07T17:41:39.134Z,59.60
2022-10-07T17:44:11.619Z,59.60
2022-10-07T17:46:42.609Z,59.70
2022-10-07T17:49:13.493Z,59.70
2022-10-07T17:51:42.669Z,59.80
2022-10-07T17:54:11.096Z,59.70
2022-10-07T17:56:37.903Z,59.80
2022-10-07T17:59:05.468Z,59.90
2022-10-07T18:01:34.805Z,59.90
2022-10-07T18:04:04.708Z,59.90
2022-10-07T18:06:34.073Z,59.90
2022-10-07T18:09:07.087Z,60.00
2022-10-07T18:11:52.527Z,60.00
2022-10-07T18:14:37.747Z,60.10
2022-10-07T18:17:06.334Z,60.00
2022-10-07T18:19:33.275Z,60.10
2022-10-07T18:22:00.619Z,60.20
2022-10-07T18:24:28.894Z,60.20
2022-10-07T18:26:58.937Z,60.20
2022-10-07T18:29:31.256Z,60.30
2022-10-07T18:31:58.650Z,60.40
2022-10-07T18:34:25.471Z,60.40
2022-10-07T18:36:56.193Z,60.50
2022-10-07T18:39:27.229Z,60.40
2022-10-07T18:41:54.323Z,60.50
2022-10-07T18:44:21.320Z,60.60
2022-10-07T18:46:48.699Z,60.60
2022-10-07T18:49:16.234Z,60.70
2022-10-07T18:51:43.364Z,60.70
2022-10-07T18:54:11.043Z,60.70
2022-10-07T18:56:41.034Z,60.70
2022-10-07T18:59:09.622Z,60.80
2022-10-07T19:01:39.573Z,60.80
2022-10-07T19:04:10.918Z,60.90
2022-10-07T19:06:43.174Z,61.00
2022-10-07T19:09:14.816Z,61.20
2022-10-07T19:11:41.694Z,61.10
2022-10-07T19:14:08.388Z,61.20
2022-10-07T19:16:38.680Z,61.20
2022-10-07T19:19:17.560Z,61.40
2022-10-07T19:21:47.609Z,61.50
2022-10-07T19:24:15.439Z,61.50
2022-10-07T19:26:45.154Z,61.70
2022-10-07T19:29:13.321Z,61.60
2022-10-07T19:31:42.375Z,61.70
2022-10-07T19:34:14.516Z,61.70
2022-10-07T19:36:46.756Z,61.90
2022-10-07T19:39:19.634Z,62.00
2022-10-07T19:41:51.062Z,62.10
2022-10-07T19:44:18.257Z,62.30
2022-10-07T19:46:45.107Z,62.20
2022-10-07T19:49:12.574Z,62.30
2022-10-07T19:51:40.397Z,62.40
2022-10-07T19:54:10.131Z,62.50
2022-10-07T19:56:40.569Z,62.50
2022-10-07T19:59:15.098Z,62.50
2022-10-07T20:01:44.276Z,62.60
2022-10-07T20:04:13.494Z,62.70
2022-10-07T20:06:40.831Z,62.70
2022-10-07T20:09:12.887Z,62.80
2022-10-07T20:11:39.630Z,62.90
2022-10-07T20:14:06.703Z,62.90
2022-10-07T20:16:34.842Z,62.90
2022-10-07T20:19:05.729Z,62.90
2022-10-07T20:21:35.840Z,63.10
2022-10-07T20:24:07.479Z,63.10
2022-10-07T20:26:36.981Z,63.20
2022-10-07T20:29:05.454Z,63.10
2022-10-07T20:31:35.165Z,63.20
2022-10-07T20:34:02.892Z,63.40
2022-10-07T20:36:32.744Z,63.30
2022-10-07T20:39:39.101Z,63.40
2022-10-07T20:42:21.407Z,63.40
2022-10-07T20:44:49.446Z,63.50
2022-10-07T20:47:16.831Z,63.50
2022-10-07T20:49:48.540Z,63.60
2022-10-07T20:52:19.520Z,63.70
2022-10-07T20:54:50.234Z,63.80
2022-10-07T20:57:19.531Z,63.80
2022-10-07T20:59:47.355Z,63.80
2022-10-07T21:02:16.130Z,63.90
2022-10-07T21:04:43.156Z,64.10
2022-10-07T21:07:10.402Z,63.90
2022-10-07T21:09:37.144Z,64.10
2022-10-07T21:12:07.521Z,64.10
2022-10-07T21:14:37.801Z,64.30
2022-10-07T21:17:05.856Z,64.40
2022-10-07T21:19:35.595Z,64.50
2022-10-07T21:22:03.999Z,64.50
2022-10-07T21:24:33.264Z,64.60
2022-10-07T21:27:01.665Z,64.80
2022-10-07T21:29:31.126Z,64.60
2022-10-07T21:32:01.333Z,64.70
2022-10-07T21:34:29.856Z,64.80
2022-10-07T21:36:57.636Z,64.80
2022-10-07T21:39:26.179Z,65.00
2022-10-07T21:41:53.470Z,65.00
2022-10-07T21:44:20.727Z,65.10
2022-10-07T21:46:47.562Z,65.10
2022-10-07T21:49:15.121Z,65.20
2022-10-07T21:51:42.791Z,65.30
2022-10-07T21:54:13.622Z,65.50
2022-10-07T21:56:40.515Z,65.50
2022-10-07T21:59:07.287Z,65.50
2022-10-07T22:01:34.092Z,65.50
2022-10-07T22:04:03.099Z,65.60
2022-10-07T22:06:50.270Z,65.60
2022-10-07T22:09:23.602Z,65.80
2022-10-07T22:11:51.101Z,65.80
2022-10-07T22:14:18.809Z,65.70
2022-10-07T22:16:49.601Z,65.70
2022-10-07T22:19:17.536Z,65.80
2022-10-07T22:21:45.620Z,65.80
2022-10-07T22:24:12.843Z,66.00
2022-10-07T22:26:47.742Z,66.00
2022-10-07T22:29:16.482Z,66.10
2022-10-07T22:31:43.853Z,66.10
2022-10-07T22:34:30.852Z,66.20
2022-10-07T22:37:00.405Z,66.20
2022-10-07T22:39:28.760Z,66.20
2022-10-07T22:41:55.936Z,66.30
2022-10-07T22:44:22.695Z,66.40
2022-10-07T22:46:49.454Z,66.50
2022-10-07T22:49:16.260Z,66.50
2022-10-07T22:51:43.207Z,66.60
2022-10-07T22:54:13.127Z,66.60
2022-10-07T22:56:40.307Z,66.60
2022-10-07T22:59:08.499Z,66.80
2022-10-07T23:01:35.871Z,66.70
2022-10-07T23:04:03.610Z,66.80
2022-10-07T23:06:35.494Z,66.80
2022-10-07T23:09:03.867Z,67.00
2022-10-07T23:11:31.416Z,67.00
2022-10-07T23:14:01.057Z,67.10
2022-10-07T23:16:30.214Z,67.00
2022-10-07T23:18:58.547Z,67.10
2022-10-07T23:21:27.062Z,67.30
2022-10-07T23:24:06.090Z,67.50
2022-10-07T23:26:34.415Z,67.60
2022-10-07T23:29:02.436Z,67.50
2022-10-07T23:31:35.965Z,67.70
2022-10-07T23:34:03.252Z,67.50
2022-10-07T23:36:31.106Z,67.50
2022-10-07T23:39:00.099Z,67.50
2022-10-07T23:41:29.096Z,67.60
2022-10-07T23:44:01.908Z,67.60
2022-10-07T23:46:32.878Z,67.70
2022-10-07T23:49:00.552Z,67.90
2022-10-07T23:51:28.399Z,67.90
2022-10-07T23:54:04.087Z,68.00
2022-10-07T23:56:31.689Z,68.00
2022-10-07T23:58:58.640Z,68.10
